sensor_id;sensor_type;location;lat;lon;timestamp;P1;durP1;ratioP1;P2;durP2;ratioP2
65033;SDS011;51601;51.356;12.458;2023-05-10T00:01:41;8.30;;;4.00;;
65033;SDS011;51601;51.356;12.458;2023-05-10T00:06:01;7.82;;;3.92;;
65033;SDS011;51601;51.356;12.458;2023-05-10T00:10:20;7.20;;;3.63;;
65033;SDS011;51601;51.356;12.458;2023-05-10T00:14:38;7.72;;;4.00;;
65033;SDS011;51601;51.356;12.458;2023-05-10T00:18:57;7.72;;;3.75;;
65033;SDS011;51601;51.356;12.458;2023-05-10T00:23:16;9.37;;;4.00;;
65033;SDS011;51601;51.356;12.458;2023-05-10T00:27:36;7.45;;;3.42;;
65033;SDS011;51601;51.356;12.458;2023-05-10T00:31:54;8.95;;;4.03;;
65033;SDS011;51601;51.356;12.458;2023-05-10T00:36:13;7.75;;;3.83;;
65033;SDS011;51601;51.356;12.458;2023-05-10T00:40:36;7.33;;;3.70;;
65033;SDS011;51601;51.356;12.458;2023-05-10T00:45:01;9.23;;;4.28;;
65033;SDS011;51601;51.356;12.458;2023-05-10T00:49:19;8.13;;;3.63;;
65033;SDS011;51601;51.356;12.458;2023-05-10T00:53:37;8.03;;;4.47;;
65033;SDS011;51601;51.356;12.458;2023-05-10T00:57:56;7.63;;;3.60;;
65033;SDS011;51601;51.356;12.458;2023-05-10T01:02:16;8.85;;;4.03;;
65033;SDS011;51601;51.356;12.458;2023-05-10T01:06:34;8.27;;;3.93;;
65033;SDS011;51601;51.356;12.458;2023-05-10T01:10:55;7.82;;;3.80;;
65033;SDS011;51601;51.356;12.458;2023-05-10T01:15:15;8.70;;;3.83;;
65033;SDS011;51601;51.356;12.458;2023-05-10T01:19:35;8.13;;;3.90;;
65033;SDS011;51601;51.356;12.458;2023-05-10T01:24:04;8.17;;;3.70;;
65033;SDS011;51601;51.356;12.458;2023-05-10T01:28:50;7.18;;;3.28;;
65033;SDS011;51601;51.356;12.458;2023-05-10T01:33:32;7.35;;;3.08;;
65033;SDS011;51601;51.356;12.458;2023-05-10T01:37:59;8.20;;;3.43;;
65033;SDS011;51601;51.356;12.458;2023-05-10T01:42:29;8.07;;;3.95;;
65033;SDS011;51601;51.356;12.458;2023-05-10T01:46:57;7.57;;;3.55;;
65033;SDS011;51601;51.356;12.458;2023-05-10T01:51:25;7.90;;;3.70;;
65033;SDS011;51601;51.356;12.458;2023-05-10T01:55:47;7.90;;;3.70;;
65033;SDS011;51601;51.356;12.458;2023-05-10T02:00:08;7.82;;;4.03;;
65033;SDS011;51601;51.356;12.458;2023-05-10T02:04:32;6.25;;;3.10;;
65033;SDS011;51601;51.356;12.458;2023-05-10T02:08:54;8.30;;;3.80;;
65033;SDS011;51601;51.356;12.458;2023-05-10T02:13:14;10.10;;;4.15;;
65033;SDS011;51601;51.356;12.458;2023-05-10T02:17:36;8.00;;;3.63;;
65033;SDS011;51601;51.356;12.458;2023-05-10T02:21:57;6.80;;;3.50;;
65033;SDS011;51601;51.356;12.458;2023-05-10T02:26:19;8.23;;;3.80;;
65033;SDS011;51601;51.356;12.458;2023-05-10T02:30:39;7.40;;;3.90;;
65033;SDS011;51601;51.356;12.458;2023-05-10T02:34:57;8.20;;;3.97;;
65033;SDS011;51601;51.356;12.458;2023-05-10T02:39:18;7.75;;;3.40;;
65033;SDS011;51601;51.356;12.458;2023-05-10T02:43:40;7.80;;;3.88;;
65033;SDS011;51601;51.356;12.458;2023-05-10T02:48:00;8.52;;;4.03;;
65033;SDS011;51601;51.356;12.458;2023-05-10T02:52:19;9.73;;;4.07;;
65033;SDS011;51601;51.356;12.458;2023-05-10T02:56:43;8.43;;;4.03;;
65033;SDS011;51601;51.356;12.458;2023-05-10T03:01:08;8.45;;;4.00;;
65033;SDS011;51601;51.356;12.458;2023-05-10T03:05:28;9.00;;;4.43;;
65033;SDS011;51601;51.356;12.458;2023-05-10T03:09:49;8.40;;;4.30;;
65033;SDS011;51601;51.356;12.458;2023-05-10T03:14:10;5.47;;;2.38;;
65033;SDS011;51601;51.356;12.458;2023-05-10T03:18:41;8.43;;;4.23;;
65033;SDS011;51601;51.356;12.458;2023-05-10T03:23:02;6.90;;;2.92;;
65033;SDS011;51601;51.356;12.458;2023-05-10T03:27:26;8.45;;;3.72;;
65033;SDS011;51601;51.356;12.458;2023-05-10T03:31:47;7.15;;;3.13;;
65033;SDS011;51601;51.356;12.458;2023-05-10T03:36:06;6.47;;;2.77;;
65033;SDS011;51601;51.356;12.458;2023-05-10T03:40:26;7.47;;;3.58;;
65033;SDS011;51601;51.356;12.458;2023-05-10T03:44:47;6.65;;;3.08;;
65033;SDS011;51601;51.356;12.458;2023-05-10T03:49:05;8.33;;;3.90;;
65033;SDS011;51601;51.356;12.458;2023-05-10T03:53:28;8.07;;;3.35;;
65033;SDS011;51601;51.356;12.458;2023-05-10T03:57:47;6.85;;;2.85;;
65033;SDS011;51601;51.356;12.458;2023-05-10T04:02:05;8.13;;;4.13;;
65033;SDS011;51601;51.356;12.458;2023-05-10T04:06:27;7.80;;;3.72;;
65033;SDS011;51601;51.356;12.458;2023-05-10T04:10:49;6.95;;;3.55;;
65033;SDS011;51601;51.356;12.458;2023-05-10T04:15:09;9.35;;;3.70;;
65033;SDS011;51601;51.356;12.458;2023-05-10T04:19:28;7.10;;;3.50;;
65033;SDS011;51601;51.356;12.458;2023-05-10T04:23:48;7.00;;;3.63;;
65033;SDS011;51601;51.356;12.458;2023-05-10T04:28:08;7.90;;;3.80;;
65033;SDS011;51601;51.356;12.458;2023-05-10T04:32:27;7.23;;;3.10;;
65033;SDS011;51601;51.356;12.458;2023-05-10T04:36:45;7.57;;;3.22;;
65033;SDS011;51601;51.356;12.458;2023-05-10T04:41:04;8.40;;;3.35;;
65033;SDS011;51601;51.356;12.458;2023-05-10T04:45:23;15.30;;;3.80;;
65033;SDS011;51601;51.356;12.458;2023-05-10T04:49:42;6.90;;;3.45;;
65033;SDS011;51601;51.356;12.458;2023-05-10T04:54:04;7.18;;;3.50;;
65033;SDS011;51601;51.356;12.458;2023-05-10T04:58:22;9.13;;;3.20;;
65033;SDS011;51601;51.356;12.458;2023-05-10T05:02:43;6.50;;;3.10;;
65033;SDS011;51601;51.356;12.458;2023-05-10T05:07:01;7.75;;;3.60;;
65033;SDS011;51601;51.356;12.458;2023-05-10T05:11:19;7.18;;;3.05;;
65033;SDS011;51601;51.356;12.458;2023-05-10T05:15:37;7.57;;;2.83;;
65033;SDS011;51601;51.356;12.458;2023-05-10T05:19:57;7.95;;;3.38;;
65033;SDS011;51601;51.356;12.458;2023-05-10T05:24:16;6.78;;;2.92;;
65033;SDS011;51601;51.356;12.458;2023-05-10T05:28:34;7.00;;;3.20;;
65033;SDS011;51601;51.356;12.458;2023-05-10T05:32:52;8.90;;;3.50;;
65033;SDS011;51601;51.356;12.458;2023-05-10T05:37:15;7.20;;;3.00;;
65033;SDS011;51601;51.356;12.458;2023-05-10T05:41:34;8.02;;;2.92;;
65033;SDS011;51601;51.356;12.458;2023-05-10T05:45:52;7.03;;;3.20;;
65033;SDS011;51601;51.356;12.458;2023-05-10T05:50:11;6.20;;;3.00;;
65033;SDS011;51601;51.356;12.458;2023-05-10T05:54:30;6.72;;;3.00;;
65033;SDS011;51601;51.356;12.458;2023-05-10T05:58:50;5.83;;;2.40;;
65033;SDS011;51601;51.356;12.458;2023-05-10T06:03:08;4.90;;;2.13;;
65033;SDS011;51601;51.356;12.458;2023-05-10T06:07:26;6.53;;;2.95;;
65033;SDS011;51601;51.356;12.458;2023-05-10T06:11:46;5.40;;;2.73;;
65033;SDS011;51601;51.356;12.458;2023-05-10T06:16:05;5.05;;;2.08;;
65033;SDS011;51601;51.356;12.458;2023-05-10T06:20:23;5.93;;;2.80;;
65033;SDS011;51601;51.356;12.458;2023-05-10T06:24:41;9.05;;;3.88;;
65033;SDS011;51601;51.356;12.458;2023-05-10T06:29:01;6.83;;;3.33;;
65033;SDS011;51601;51.356;12.458;2023-05-10T06:33:20;10.57;;;3.90;;
65033;SDS011;51601;51.356;12.458;2023-05-10T06:37:38;6.80;;;3.05;;
65033;SDS011;51601;51.356;12.458;2023-05-10T06:41:56;7.20;;;3.00;;
65033;SDS011;51601;51.356;12.458;2023-05-10T06:46:22;7.75;;;2.80;;
65033;SDS011;51601;51.356;12.458;2023-05-10T06:50:42;8.95;;;3.80;;
65033;SDS011;51601;51.356;12.458;2023-05-10T06:55:00;8.43;;;3.60;;
65033;SDS011;51601;51.356;12.458;2023-05-10T06:59:18;8.60;;;3.47;;
65033;SDS011;51601;51.356;12.458;2023-05-10T07:03:40;6.97;;;3.17;;
65033;SDS011;51601;51.356;12.458;2023-05-10T07:08:00;6.93;;;3.15;;
65033;SDS011;51601;51.356;12.458;2023-05-10T07:12:18;8.40;;;3.20;;
65033;SDS011;51601;51.356;12.458;2023-05-10T07:16:36;7.20;;;2.88;;
65033;SDS011;51601;51.356;12.458;2023-05-10T07:20:56;5.50;;;2.70;;
65033;SDS011;51601;51.356;12.458;2023-05-10T07:25:15;6.03;;;2.90;;
65033;SDS011;51601;51.356;12.458;2023-05-10T07:29:33;7.00;;;2.88;;
65033;SDS011;51601;51.356;12.458;2023-05-10T07:33:51;6.18;;;2.90;;
65033;SDS011;51601;51.356;12.458;2023-05-10T07:38:11;6.13;;;2.60;;
65033;SDS011;51601;51.356;12.458;2023-05-10T07:42:31;6.78;;;3.15;;
65033;SDS011;51601;51.356;12.458;2023-05-10T07:46:49;7.80;;;3.40;;
65033;SDS011;51601;51.356;12.458;2023-05-10T07:51:07;5.90;;;2.95;;
65033;SDS011;51601;51.356;12.458;2023-05-10T07:55:30;7.40;;;2.97;;
65033;SDS011;51601;51.356;12.458;2023-05-10T07:59:49;7.78;;;3.60;;
65033;SDS011;51601;51.356;12.458;2023-05-10T08:04:07;6.30;;;3.25;;
65033;SDS011;51601;51.356;12.458;2023-05-10T08:08:25;12.00;;;3.97;;
65033;SDS011;51601;51.356;12.458;2023-05-10T08:12:45;8.23;;;3.63;;
65033;SDS011;51601;51.356;12.458;2023-05-10T08:17:04;10.50;;;3.80;;
65033;SDS011;51601;51.356;12.458;2023-05-10T08:21:22;7.27;;;3.40;;
65033;SDS011;51601;51.356;12.458;2023-05-10T08:25:40;6.47;;;3.13;;
65033;SDS011;51601;51.356;12.458;2023-05-10T08:30:00;10.55;;;3.70;;
65033;SDS011;51601;51.356;12.458;2023-05-10T08:34:20;7.63;;;3.60;;
65033;SDS011;51601;51.356;12.458;2023-05-10T08:38:38;8.60;;;4.00;;
65033;SDS011;51601;51.356;12.458;2023-05-10T08:42:58;9.55;;;3.90;;
65033;SDS011;51601;51.356;12.458;2023-05-10T08:47:21;7.78;;;3.28;;
65033;SDS011;51601;51.356;12.458;2023-05-10T08:51:42;10.37;;;3.70;;
65033;SDS011;51601;51.356;12.458;2023-05-10T08:56:05;8.82;;;4.45;;
65033;SDS011;51601;51.356;12.458;2023-05-10T09:00:23;7.63;;;3.20;;
65033;SDS011;51601;51.356;12.458;2023-05-10T09:04:43;7.07;;;3.30;;
65033;SDS011;51601;51.356;12.458;2023-05-10T09:09:02;8.50;;;3.60;;
65033;SDS011;51601;51.356;12.458;2023-05-10T09:13:21;8.98;;;3.83;;
65033;SDS011;51601;51.356;12.458;2023-05-10T09:17:42;8.73;;;4.25;;
65033;SDS011;51601;51.356;12.458;2023-05-10T09:22:01;6.60;;;3.23;;
65033;SDS011;51601;51.356;12.458;2023-05-10T09:26:24;8.55;;;4.10;;
65033;SDS011;51601;51.356;12.458;2023-05-10T09:30:42;8.27;;;4.63;;
65033;SDS011;51601;51.356;12.458;2023-05-10T09:35:05;8.90;;;4.70;;
65033;SDS011;51601;51.356;12.458;2023-05-10T09:39:35;9.32;;;4.00;;
65033;SDS011;51601;51.356;12.458;2023-05-10T09:43:55;8.10;;;4.00;;
65033;SDS011;51601;51.356;12.458;2023-05-10T09:48:13;7.53;;;4.03;;
65033;SDS011;51601;51.356;12.458;2023-05-10T09:52:31;10.57;;;4.93;;
65033;SDS011;51601;51.356;12.458;2023-05-10T09:57:05;8.73;;;3.60;;
65033;SDS011;51601;51.356;12.458;2023-05-10T10:01:34;11.63;;;5.63;;
65033;SDS011;51601;51.356;12.458;2023-05-10T10:05:52;10.13;;;4.83;;
65033;SDS011;51601;51.356;12.458;2023-05-10T10:10:14;10.27;;;5.65;;
65033;SDS011;51601;51.356;12.458;2023-05-10T10:14:33;10.20;;;5.70;;
65033;SDS011;51601;51.356;12.458;2023-05-10T10:18:53;10.60;;;5.47;;
65033;SDS011;51601;51.356;12.458;2023-05-10T10:23:11;7.53;;;3.95;;
65033;SDS011;51601;51.356;12.458;2023-05-10T10:27:35;7.80;;;4.07;;
65033;SDS011;51601;51.356;12.458;2023-05-10T10:32:06;10.23;;;6.23;;
65033;SDS011;51601;51.356;12.458;2023-05-10T10:36:30;11.55;;;6.55;;
65033;SDS011;51601;51.356;12.458;2023-05-10T10:41:01;8.23;;;4.40;;
65033;SDS011;51601;51.356;12.458;2023-05-10T10:45:24;10.18;;;5.40;;
65033;SDS011;51601;51.356;12.458;2023-05-10T10:49:49;11.80;;;6.10;;
65033;SDS011;51601;51.356;12.458;2023-05-10T10:54:10;12.35;;;5.68;;
65033;SDS011;51601;51.356;12.458;2023-05-10T10:58:31;11.63;;;6.07;;
65033;SDS011;51601;51.356;12.458;2023-05-10T11:02:50;12.57;;;6.23;;
65033;SDS011;51601;51.356;12.458;2023-05-10T11:07:18;10.90;;;6.20;;
65033;SDS011;51601;51.356;12.458;2023-05-10T11:11:48;10.75;;;5.47;;
65033;SDS011;51601;51.356;12.458;2023-05-10T11:16:11;10.50;;;6.10;;
65033;SDS011;51601;51.356;12.458;2023-05-10T11:20:38;10.02;;;5.82;;
65033;SDS011;51601;51.356;12.458;2023-05-10T11:24:57;11.13;;;5.78;;
65033;SDS011;51601;51.356;12.458;2023-05-10T11:29:17;9.60;;;4.75;;
65033;SDS011;51601;51.356;12.458;2023-05-10T11:33:42;9.47;;;4.37;;
65033;SDS011;51601;51.356;12.458;2023-05-10T11:38:02;12.63;;;7.00;;
65033;SDS011;51601;51.356;12.458;2023-05-10T11:42:26;8.88;;;4.38;;
65033;SDS011;51601;51.356;12.458;2023-05-10T11:46:44;10.23;;;4.50;;
65033;SDS011;51601;51.356;12.458;2023-05-10T11:51:03;13.75;;;7.35;;
65033;SDS011;51601;51.356;12.458;2023-05-10T11:55:21;15.45;;;8.23;;
65033;SDS011;51601;51.356;12.458;2023-05-10T11:59:43;14.93;;;8.27;;
65033;SDS011;51601;51.356;12.458;2023-05-10T12:04:03;11.63;;;6.30;;
65033;SDS011;51601;51.356;12.458;2023-05-10T12:08:22;15.38;;;8.80;;
65033;SDS011;51601;51.356;12.458;2023-05-10T12:12:43;12.63;;;7.43;;
65033;SDS011;51601;51.356;12.458;2023-05-10T12:17:05;14.30;;;8.10;;
65033;SDS011;51601;51.356;12.458;2023-05-10T12:21:24;9.68;;;5.93;;
65033;SDS011;51601;51.356;12.458;2023-05-10T12:25:45;12.65;;;7.10;;
65033;SDS011;51601;51.356;12.458;2023-05-10T12:30:04;14.70;;;8.50;;
65033;SDS011;51601;51.356;12.458;2023-05-10T12:34:29;12.68;;;7.35;;
65033;SDS011;51601;51.356;12.458;2023-05-10T12:38:49;10.27;;;5.97;;
65033;SDS011;51601;51.356;12.458;2023-05-10T12:43:10;14.50;;;7.57;;
65033;SDS011;51601;51.356;12.458;2023-05-10T12:47:28;11.05;;;6.57;;
65033;SDS011;51601;51.356;12.458;2023-05-10T12:51:47;7.97;;;4.35;;
65033;SDS011;51601;51.356;12.458;2023-05-10T12:56:07;8.68;;;4.03;;
65033;SDS011;51601;51.356;12.458;2023-05-10T13:00:25;12.87;;;7.63;;
65033;SDS011;51601;51.356;12.458;2023-05-10T13:04:43;10.15;;;5.90;;
65033;SDS011;51601;51.356;12.458;2023-05-10T13:09:10;14.10;;;7.82;;
65033;SDS011;51601;51.356;12.458;2023-05-10T13:13:45;15.63;;;8.37;;
65033;SDS011;51601;51.356;12.458;2023-05-10T13:18:02;11.70;;;7.15;;
65033;SDS011;51601;51.356;12.458;2023-05-10T13:22:20;12.88;;;7.55;;
65033;SDS011;51601;51.356;12.458;2023-05-10T13:26:58;13.30;;;7.50;;
65033;SDS011;51601;51.356;12.458;2023-05-10T13:31:18;14.27;;;8.18;;
65033;SDS011;51601;51.356;12.458;2023-05-10T13:35:36;11.60;;;6.95;;
65033;SDS011;51601;51.356;12.458;2023-05-10T13:39:54;12.48;;;7.18;;
65033;SDS011;51601;51.356;12.458;2023-05-10T13:44:13;12.23;;;7.57;;
65033;SDS011;51601;51.356;12.458;2023-05-10T13:48:33;10.63;;;6.30;;
65033;SDS011;51601;51.356;12.458;2023-05-10T13:52:54;9.60;;;5.82;;
65033;SDS011;51601;51.356;12.458;2023-05-10T13:57:12;9.90;;;5.70;;
65033;SDS011;51601;51.356;12.458;2023-05-10T14:01:35;8.77;;;4.80;;
65033;SDS011;51601;51.356;12.458;2023-05-10T14:05:55;10.30;;;5.30;;
65033;SDS011;51601;51.356;12.458;2023-05-10T14:10:12;8.07;;;4.33;;
65033;SDS011;51601;51.356;12.458;2023-05-10T14:14:31;9.00;;;4.70;;
65033;SDS011;51601;51.356;12.458;2023-05-10T14:18:50;7.97;;;4.45;;
65033;SDS011;51601;51.356;12.458;2023-05-10T14:23:10;9.75;;;4.40;;
65033;SDS011;51601;51.356;12.458;2023-05-10T14:27:28;7.17;;;3.90;;
65033;SDS011;51601;51.356;12.458;2023-05-10T14:31:46;7.97;;;4.03;;
65033;SDS011;51601;51.356;12.458;2023-05-10T14:36:06;6.90;;;3.67;;
65033;SDS011;51601;51.356;12.458;2023-05-10T14:40:25;7.20;;;3.83;;
65033;SDS011;51601;51.356;12.458;2023-05-10T14:44:43;7.22;;;3.80;;
65033;SDS011;51601;51.356;12.458;2023-05-10T14:49:01;7.20;;;3.90;;
65033;SDS011;51601;51.356;12.458;2023-05-10T14:53:21;8.00;;;4.00;;
65033;SDS011;51601;51.356;12.458;2023-05-10T14:57:40;7.43;;;4.45;;
65033;SDS011;51601;51.356;12.458;2023-05-10T15:02:01;7.60;;;4.18;;
65033;SDS011;51601;51.356;12.458;2023-05-10T15:06:23;7.35;;;3.90;;
65033;SDS011;51601;51.356;12.458;2023-05-10T15:10:48;7.00;;;3.80;;
65033;SDS011;51601;51.356;12.458;2023-05-10T15:15:08;7.03;;;3.70;;
65033;SDS011;51601;51.356;12.458;2023-05-10T15:19:26;6.97;;;3.40;;
65033;SDS011;51601;51.356;12.458;2023-05-10T15:23:44;7.20;;;3.70;;
65033;SDS011;51601;51.356;12.458;2023-05-10T15:28:04;5.75;;;2.40;;
65033;SDS011;51601;51.356;12.458;2023-05-10T15:32:23;6.43;;;2.38;;
65033;SDS011;51601;51.356;12.458;2023-05-10T15:36:41;3.90;;;1.50;;
65033;SDS011;51601;51.356;12.458;2023-05-10T15:40:59;3.67;;;1.48;;
65033;SDS011;51601;51.356;12.458;2023-05-10T15:45:19;4.53;;;1.67;;
65033;SDS011;51601;51.356;12.458;2023-05-10T15:49:38;3.95;;;1.45;;
65033;SDS011;51601;51.356;12.458;2023-05-10T15:53:56;3.30;;;1.27;;
65033;SDS011;51601;51.356;12.458;2023-05-10T15:58:24;4.05;;;1.50;;
65033;SDS011;51601;51.356;12.458;2023-05-10T16:02:43;4.10;;;1.40;;
65033;SDS011;51601;51.356;12.458;2023-05-10T16:07:03;3.97;;;1.57;;
65033;SDS011;51601;51.356;12.458;2023-05-10T16:11:21;3.60;;;1.50;;
65033;SDS011;51601;51.356;12.458;2023-05-10T16:15:39;4.20;;;1.70;;
65033;SDS011;51601;51.356;12.458;2023-05-10T16:19:59;4.60;;;1.50;;
65033;SDS011;51601;51.356;12.458;2023-05-10T16:24:18;4.72;;;1.70;;
65033;SDS011;51601;51.356;12.458;2023-05-10T16:28:36;3.72;;;1.35;;
65033;SDS011;51601;51.356;12.458;2023-05-10T16:32:54;4.40;;;1.60;;
65033;SDS011;51601;51.356;12.458;2023-05-10T16:37:14;3.97;;;1.60;;
65033;SDS011;51601;51.356;12.458;2023-05-10T16:41:34;4.28;;;1.70;;
65033;SDS011;51601;51.356;12.458;2023-05-10T16:45:52;4.05;;;1.70;;
65033;SDS011;51601;51.356;12.458;2023-05-10T16:50:37;5.30;;;2.10;;
65033;SDS011;51601;51.356;12.458;2023-05-10T16:54:55;4.70;;;2.00;;
65033;SDS011;51601;51.356;12.458;2023-05-10T16:59:13;4.75;;;2.08;;
65033;SDS011;51601;51.356;12.458;2023-05-10T17:03:31;5.47;;;2.35;;
65033;SDS011;51601;51.356;12.458;2023-05-10T17:07:53;6.07;;;2.75;;
65033;SDS011;51601;51.356;12.458;2023-05-10T17:12:11;6.00;;;2.90;;
65033;SDS011;51601;51.356;12.458;2023-05-10T17:16:29;6.75;;;3.47;;
65033;SDS011;51601;51.356;12.458;2023-05-10T17:20:47;6.68;;;3.47;;
65033;SDS011;51601;51.356;12.458;2023-05-10T17:25:07;6.13;;;2.80;;
65033;SDS011;51601;51.356;12.458;2023-05-10T17:29:26;6.82;;;2.80;;
65033;SDS011;51601;51.356;12.458;2023-05-10T17:33:44;6.93;;;2.88;;
65033;SDS011;51601;51.356;12.458;2023-05-10T17:38:02;5.90;;;2.83;;
65033;SDS011;51601;51.356;12.458;2023-05-10T17:42:21;5.40;;;2.47;;
65033;SDS011;51601;51.356;12.458;2023-05-10T17:46:41;6.20;;;3.00;;
65033;SDS011;51601;51.356;12.458;2023-05-10T17:50:59;6.38;;;3.17;;
65033;SDS011;51601;51.356;12.458;2023-05-10T17:55:17;7.67;;;4.27;;
65033;SDS011;51601;51.356;12.458;2023-05-10T17:59:37;7.25;;;3.67;;
65033;SDS011;51601;51.356;12.458;2023-05-10T18:03:57;7.53;;;3.60;;
65033;SDS011;51601;51.356;12.458;2023-05-10T18:08:15;7.03;;;3.70;;
65033;SDS011;51601;51.356;12.458;2023-05-10T18:12:39;6.43;;;3.28;;
65033;SDS011;51601;51.356;12.458;2023-05-10T18:16:59;6.57;;;3.33;;
65033;SDS011;51601;51.356;12.458;2023-05-10T18:21:18;7.00;;;3.40;;
65033;SDS011;51601;51.356;12.458;2023-05-10T18:25:36;6.55;;;3.53;;
65033;SDS011;51601;51.356;12.458;2023-05-10T18:29:54;6.55;;;3.08;;
65033;SDS011;51601;51.356;12.458;2023-05-10T18:34:14;7.68;;;3.55;;
65033;SDS011;51601;51.356;12.458;2023-05-10T18:38:33;6.77;;;3.20;;
65033;SDS011;51601;51.356;12.458;2023-05-10T18:42:51;6.45;;;2.72;;
65033;SDS011;51601;51.356;12.458;2023-05-10T18:47:09;7.03;;;3.10;;
65033;SDS011;51601;51.356;12.458;2023-05-10T18:51:29;6.67;;;2.80;;
65033;SDS011;51601;51.356;12.458;2023-05-10T18:55:53;6.07;;;2.80;;
65033;SDS011;51601;51.356;12.458;2023-05-10T19:00:13;7.72;;;3.35;;
65033;SDS011;51601;51.356;12.458;2023-05-10T19:04:31;6.37;;;3.20;;
65033;SDS011;51601;51.356;12.458;2023-05-10T19:08:50;7.47;;;2.83;;
65033;SDS011;51601;51.356;12.458;2023-05-10T19:13:10;6.40;;;3.00;;
65033;SDS011;51601;51.356;12.458;2023-05-10T19:17:31;6.68;;;2.85;;
65033;SDS011;51601;51.356;12.458;2023-05-10T19:21:52;5.80;;;2.77;;
65033;SDS011;51601;51.356;12.458;2023-05-10T19:26:12;5.65;;;2.65;;
65033;SDS011;51601;51.356;12.458;2023-05-10T19:30:31;5.90;;;2.58;;
65033;SDS011;51601;51.356;12.458;2023-05-10T19:34:50;6.53;;;2.50;;
65033;SDS011;51601;51.356;12.458;2023-05-10T19:39:07;5.38;;;2.55;;
65033;SDS011;51601;51.356;12.458;2023-05-10T19:43:27;6.57;;;2.80;;
65033;SDS011;51601;51.356;12.458;2023-05-10T19:47:50;7.80;;;3.33;;
65033;SDS011;51601;51.356;12.458;2023-05-10T19:52:08;6.65;;;3.40;;
65033;SDS011;51601;51.356;12.458;2023-05-10T19:56:29;6.85;;;3.63;;
65033;SDS011;51601;51.356;12.458;2023-05-10T20:00:48;6.88;;;3.53;;
65033;SDS011;51601;51.356;12.458;2023-05-10T20:05:08;7.70;;;3.53;;
65033;SDS011;51601;51.356;12.458;2023-05-10T20:09:26;7.22;;;3.90;;
65033;SDS011;51601;51.356;12.458;2023-05-10T20:13:44;7.03;;;3.50;;
65033;SDS011;51601;51.356;12.458;2023-05-10T20:18:04;7.30;;;4.13;;
65033;SDS011;51601;51.356;12.458;2023-05-10T20:22:24;7.20;;;3.78;;
65033;SDS011;51601;51.356;12.458;2023-05-10T20:26:41;7.63;;;3.97;;
65033;SDS011;51601;51.356;12.458;2023-05-10T20:30:59;7.70;;;4.00;;
65033;SDS011;51601;51.356;12.458;2023-05-10T20:35:19;7.97;;;4.25;;
65033;SDS011;51601;51.356;12.458;2023-05-10T20:39:39;9.27;;;4.00;;
65033;SDS011;51601;51.356;12.458;2023-05-10T20:43:57;8.80;;;4.40;;
65033;SDS011;51601;51.356;12.458;2023-05-10T20:48:15;7.80;;;4.07;;
65033;SDS011;51601;51.356;12.458;2023-05-10T20:52:37;8.48;;;4.50;;
65033;SDS011;51601;51.356;12.458;2023-05-10T20:56:57;11.55;;;4.97;;
65033;SDS011;51601;51.356;12.458;2023-05-10T21:01:20;10.07;;;6.00;;
65033;SDS011;51601;51.356;12.458;2023-05-10T21:05:39;10.13;;;5.50;;
65033;SDS011;51601;51.356;12.458;2023-05-10T21:10:02;10.55;;;5.28;;
65033;SDS011;51601;51.356;12.458;2023-05-10T21:14:22;11.93;;;5.40;;
65033;SDS011;51601;51.356;12.458;2023-05-10T21:18:40;11.65;;;5.68;;
65033;SDS011;51601;51.356;12.458;2023-05-10T21:22:58;11.60;;;5.57;;
65033;SDS011;51601;51.356;12.458;2023-05-10T21:27:17;11.05;;;5.40;;
65033;SDS011;51601;51.356;12.458;2023-05-10T21:31:37;11.03;;;5.73;;
65033;SDS011;51601;51.356;12.458;2023-05-10T21:35:55;12.75;;;6.15;;
65033;SDS011;51601;51.356;12.458;2023-05-10T21:40:13;10.80;;;5.45;;
65033;SDS011;51601;51.356;12.458;2023-05-10T21:44:33;11.23;;;6.23;;
65033;SDS011;51601;51.356;12.458;2023-05-10T21:48:52;13.38;;;6.72;;
65033;SDS011;51601;51.356;12.458;2023-05-10T21:53:10;12.90;;;6.20;;
65033;SDS011;51601;51.356;12.458;2023-05-10T21:57:28;12.87;;;6.83;;
65033;SDS011;51601;51.356;12.458;2023-05-10T22:01:48;12.98;;;6.45;;
65033;SDS011;51601;51.356;12.458;2023-05-10T22:06:07;12.73;;;6.97;;
65033;SDS011;51601;51.356;12.458;2023-05-10T22:10:26;14.32;;;7.03;;
65033;SDS011;51601;51.356;12.458;2023-05-10T22:14:44;10.63;;;5.87;;
65033;SDS011;51601;51.356;12.458;2023-05-10T22:19:09;12.48;;;6.60;;
65033;SDS011;51601;51.356;12.458;2023-05-10T22:23:29;12.00;;;6.20;;
65033;SDS011;51601;51.356;12.458;2023-05-10T22:27:47;12.37;;;6.40;;
65033;SDS011;51601;51.356;12.458;2023-05-10T22:32:05;13.02;;;6.28;;
65033;SDS011;51601;51.356;12.458;2023-05-10T22:36:24;11.15;;;6.20;;
65033;SDS011;51601;51.356;12.458;2023-05-10T22:40:44;13.60;;;6.67;;
65033;SDS011;51601;51.356;12.458;2023-05-10T22:45:03;14.07;;;6.22;;
65033;SDS011;51601;51.356;12.458;2023-05-10T22:49:23;11.57;;;5.43;;
65033;SDS011;51601;51.356;12.458;2023-05-10T22:53:43;11.10;;;5.60;;
65033;SDS011;51601;51.356;12.458;2023-05-10T22:58:03;10.97;;;5.67;;
65033;SDS011;51601;51.356;12.458;2023-05-10T23:02:21;12.38;;;6.28;;
65033;SDS011;51601;51.356;12.458;2023-05-10T23:06:39;13.50;;;6.80;;
65033;SDS011;51601;51.356;12.458;2023-05-10T23:10:59;13.13;;;6.70;;
65033;SDS011;51601;51.356;12.458;2023-05-10T23:15:18;13.32;;;6.75;;
65033;SDS011;51601;51.356;12.458;2023-05-10T23:19:36;15.52;;;7.47;;
65033;SDS011;51601;51.356;12.458;2023-05-10T23:23:54;12.93;;;6.77;;
65033;SDS011;51601;51.356;12.458;2023-05-10T23:28:13;14.05;;;7.63;;
65033;SDS011;51601;51.356;12.458;2023-05-10T23:32:33;14.80;;;7.25;;
65033;SDS011;51601;51.356;12.458;2023-05-10T23:36:51;16.38;;;8.05;;
65033;SDS011;51601;51.356;12.458;2023-05-10T23:41:09;13.90;;;7.13;;
65033;SDS011;51601;51.356;12.458;2023-05-10T23:45:29;14.27;;;7.25;;
65033;SDS011;51601;51.356;12.458;2023-05-10T23:49:48;15.82;;;7.00;;
65033;SDS011;51601;51.356;12.458;2023-05-10T23:54:06;13.97;;;7.40;;
65033;SDS011;51601;51.356;12.458;2023-05-10T23:58:28;16.02;;;7.68;;
